This is the latest recevied weather packets stored in our database for station/object DB0MI. If no packets are shown the sender has not sent any weather packets the latest 10 day(s).
| Time | Temp. | Humidity | Pressure | Rain* | Wind** | Luminosity | Snow |
|---|---|---|---|---|---|---|---|
| 1777842710 | 14.44° C | 55% | 1014 hPa | 0 mm | - | - | - |
| 1777842110 | 14.44° C | 55% | 1014.1 hPa | 0 mm | - | - | - |
| 1777841510 | 14.44° C | 54% | 1014.1 hPa | 0 mm | - | - | - |
| 1777840910 | 15° C | 54% | 1013.9 hPa | 0 mm | - | - | - |
| 1777840310 | 15° C | 54% | 1014.1 hPa | 0 mm | - | - | - |
| 1777839710 | 15° C | 53% | 1014.2 hPa | 0 mm | - | - | - |
| 1777839110 | 15.56° C | 52% | 1014.2 hPa | 0 mm | - | - | - |
| 1777838510 | 15.56° C | 51% | 1014.1 hPa | 0 mm | - | - | - |
| 1777837910 | 16.11° C | 51% | 1014.1 hPa | 0 mm | - | - | - |
| 1777837310 | 16.11° C | 50% | 1014.1 hPa | 0 mm | - | - | - |
| 1777836710 | 16.11° C | 50% | 1014.1 hPa | 0 mm | - | - | - |
| 1777836110 | 16.67° C | 49% | 1014 hPa | 0 mm | - | - | - |
| 1777835510 | 16.67° C | 50% | 1014 hPa | 0 mm | - | - | - |
| 1777834910 | 17.22° C | 50% | 1013.8 hPa | 0 mm | - | - | - |
| 1777834310 | 17.22° C | 51% | 1013.8 hPa | 0 mm | - | - | - |
| 1777833710 | 17.78° C | 52% | 1013.6 hPa | 0 mm | - | - | - |
| 1777833110 | 17.78° C | 52% | 1013.5 hPa | 0 mm | - | - | - |
| 1777832510 | 17.78° C | 51% | 1013.4 hPa | 0 mm | - | - | - |
| 1777831910 | 17.78° C | 51% | 1013.4 hPa | 0 mm | - | - | - |
| 1777831310 | 18.33° C | 50% | 1013.3 hPa | 0 mm | - | - | - |
| 1777830710 | 18.33° C | 49% | 1013.5 hPa | 0 mm | - | - | - |
| 1777830110 | 18.89° C | 47% | 1013.5 hPa | 0 mm | - | - | - |
| 1777829510 | 18.89° C | 47% | 1013.6 hPa | 0 mm | - | - | - |
| 1777828910 | 19.44° C | 45% | 1013.6 hPa | 0 mm | - | - | - |
| 1777828310 | 20° C | 43% | 1013.5 hPa | 0 mm | - | - | - |
* Rain latest hour (hover to see other rain measurements)
** Current wind speed in m/s (hover to see current wind gust speed)